sensor_id;sensor_type;location;lat;lon;timestamp;pressure;altitude;pressure_sealevel;temperature;humidity
11413;BME280;5762;43.256;26.960;2023-05-14T00:01:43;100293.12;;;10.33;100.00
11413;BME280;5762;43.256;26.960;2023-05-14T00:04:12;100296.12;;;10.29;100.00
11413;BME280;5762;43.256;26.960;2023-05-14T00:06:41;100297.22;;;10.28;100.00
11413;BME280;5762;43.256;26.960;2023-05-14T00:09:10;100301.01;;;10.27;100.00
11413;BME280;5762;43.256;26.960;2023-05-14T00:11:39;100301.03;;;10.24;100.00
11413;BME280;5762;43.256;26.960;2023-05-14T00:14:08;100298.08;;;10.21;100.00
11413;BME280;5762;43.256;26.960;2023-05-14T00:16:36;100297.27;;;10.20;100.00
11413;BME280;5762;43.256;26.960;2023-05-14T00:19:05;100292.37;;;10.25;100.00
11413;BME280;5762;43.256;26.960;2023-05-14T00:21:34;100291.84;;;10.23;100.00
11413;BME280;5762;43.256;26.960;2023-05-14T00:24:03;100290.49;;;10.18;100.00
11413;BME280;5762;43.256;26.960;2023-05-14T00:26:32;100291.05;;;10.20;100.00
11413;BME280;5762;43.256;26.960;2023-05-14T00:29:00;100290.75;;;10.19;100.00
11413;BME280;5762;43.256;26.960;2023-05-14T00:31:29;100283.99;;;10.19;100.00
11413;BME280;5762;43.256;26.960;2023-05-14T00:33:58;100283.19;;;10.18;100.00
11413;BME280;5762;43.256;26.960;2023-05-14T00:36:27;100277.78;;;10.18;100.00
11413;BME280;5762;43.256;26.960;2023-05-14T00:38:56;100287.26;;;10.21;100.00
11413;BME280;5762;43.256;26.960;2023-05-14T00:41:25;100286.71;;;10.21;100.00
11413;BME280;5762;43.256;26.960;2023-05-14T00:43:54;100276.98;;;10.15;100.00
11413;BME280;5762;43.256;26.960;2023-05-14T00:46:23;100281.84;;;10.16;100.00
11413;BME280;5762;43.256;26.960;2023-05-14T00:48:52;100284.34;;;10.07;100.00
11413;BME280;5762;43.256;26.960;2023-05-14T00:51:21;100281.63;;;10.07;100.00
11413;BME280;5762;43.256;26.960;2023-05-14T00:53:50;100277.05;;;10.05;100.00
11413;BME280;5762;43.256;26.960;2023-05-14T00:56:22;100269.25;;;10.03;100.00
11413;BME280;5762;43.256;26.960;2023-05-14T00:58:51;100267.38;;;9.99;100.00
11413;BME280;5762;43.256;26.960;2023-05-14T01:01:19;100263.06;;;9.98;100.00
11413;BME280;5762;43.256;26.960;2023-05-14T01:03:48;100267.40;;;9.96;100.00
11413;BME280;5762;43.256;26.960;2023-05-14T01:06:18;100270.63;;;9.98;100.00
11413;BME280;5762;43.256;26.960;2023-05-14T01:08:56;100271.98;;;9.98;100.00
11413;BME280;5762;43.256;26.960;2023-05-14T01:11:25;100263.58;;;10.02;100.00
11413;BME280;5762;43.256;26.960;2023-05-14T01:13:59;100263.84;;;10.03;100.00
11413;BME280;5762;43.256;26.960;2023-05-14T01:16:25;100250.86;;;10.03;100.00
11413;BME280;5762;43.256;26.960;2023-05-14T01:18:54;100254.33;;;10.06;100.00
11413;BME280;5762;43.256;26.960;2023-05-14T01:21:27;100253.52;;;10.05;100.00
11413;BME280;5762;43.256;26.960;2023-05-14T01:23:53;100247.02;;;10.06;100.00
11413;BME280;5762;43.256;26.960;2023-05-14T01:26:22;100244.37;;;10.04;100.00
11413;BME280;5762;43.256;26.960;2023-05-14T01:28:51;100246.31;;;9.96;100.00
11413;BME280;5762;43.256;26.960;2023-05-14T01:31:21;100256.65;;;9.86;100.00
11413;BME280;5762;43.256;26.960;2023-05-14T01:33:51;100253.95;;;9.84;100.00
11413;BME280;5762;43.256;26.960;2023-05-14T01:36:19;100255.05;;;9.83;100.00
11413;BME280;5762;43.256;26.960;2023-05-14T01:38:49;100253.73;;;9.75;100.00
11413;BME280;5762;43.256;26.960;2023-05-14T01:41:18;100252.91;;;9.77;100.00
11413;BME280;5762;43.256;26.960;2023-05-14T01:43:47;100255.59;;;9.82;100.00
11413;BME280;5762;43.256;26.960;2023-05-14T01:46:17;100245.07;;;9.78;100.00
11413;BME280;5762;43.256;26.960;2023-05-14T01:48:45;100244.89;;;9.67;100.00
11413;BME280;5762;43.256;26.960;2023-05-14T01:51:14;100243.52;;;9.69;100.00
11413;BME280;5762;43.256;26.960;2023-05-14T01:53:43;100247.81;;;9.70;100.00
11413;BME280;5762;43.256;26.960;2023-05-14T01:56:11;100246.73;;;9.71;100.00
11413;BME280;5762;43.256;26.960;2023-05-14T01:58:40;100253.80;;;9.67;100.00
11413;BME280;5762;43.256;26.960;2023-05-14T02:01:09;100255.98;;;9.65;100.00
11413;BME280;5762;43.256;26.960;2023-05-14T02:03:37;100254.62;;;9.68;100.00
11413;BME280;5762;43.256;26.960;2023-05-14T02:06:05;100257.54;;;9.71;100.00
11413;BME280;5762;43.256;26.960;2023-05-14T02:08:33;100258.95;;;9.64;100.00
11413;BME280;5762;43.256;26.960;2023-05-14T02:11:02;100257.62;;;9.61;100.00
11413;BME280;5762;43.256;26.960;2023-05-14T02:13:31;100258.42;;;9.64;100.00
11413;BME280;5762;43.256;26.960;2023-05-14T02:16:00;100265.73;;;9.61;100.00
11413;BME280;5762;43.256;26.960;2023-05-14T02:18:29;100272.73;;;9.65;100.00
11413;BME280;5762;43.256;26.960;2023-05-14T02:20:57;100269.23;;;9.64;100.00
11413;BME280;5762;43.256;26.960;2023-05-14T02:23:26;100270.03;;;9.65;100.00
11413;BME280;5762;43.256;26.960;2023-05-14T02:25:56;100273.27;;;9.67;100.00
11413;BME280;5762;43.256;26.960;2023-05-14T02:28:25;100270.78;;;9.70;100.00
11413;BME280;5762;43.256;26.960;2023-05-14T02:30:59;100271.05;;;9.71;100.00
11413;BME280;5762;43.256;26.960;2023-05-14T02:33:27;100265.38;;;9.70;100.00
11413;BME280;5762;43.256;26.960;2023-05-14T02:35:56;100267.80;;;9.74;100.00
11413;BME280;5762;43.256;26.960;2023-05-14T02:38:25;100266.44;;;9.74;100.00
11413;BME280;5762;43.256;26.960;2023-05-14T02:40:54;100268.60;;;9.75;100.00
11413;BME280;5762;43.256;26.960;2023-05-14T02:43:23;100271.56;;;9.76;100.00
11413;BME280;5762;43.256;26.960;2023-05-14T02:45:52;100270.77;;;9.73;100.00
11413;BME280;5762;43.256;26.960;2023-05-14T02:48:21;100259.14;;;9.75;100.00
11413;BME280;5762;43.256;26.960;2023-05-14T02:50:50;100253.19;;;9.75;100.00
11413;BME280;5762;43.256;26.960;2023-05-14T02:53:18;100250.23;;;9.74;100.00
11413;BME280;5762;43.256;26.960;2023-05-14T02:55:47;100249.12;;;9.78;100.00
11413;BME280;5762;43.256;26.960;2023-05-14T02:58:16;100253.72;;;9.78;100.00
11413;BME280;5762;43.256;26.960;2023-05-14T03:00:44;100255.91;;;9.73;100.00
11413;BME280;5762;43.256;26.960;2023-05-14T03:03:13;100252.12;;;9.74;100.00
11413;BME280;5762;43.256;26.960;2023-05-14T03:05:42;100252.67;;;9.71;100.00
11413;BME280;5762;43.256;26.960;2023-05-14T03:08:11;100263.70;;;9.82;100.00
11413;BME280;5762;43.256;26.960;2023-05-14T03:10:40;100269.66;;;9.79;100.00
11413;BME280;5762;43.256;26.960;2023-05-14T03:13:09;100272.66;;;9.75;100.00
11413;BME280;5762;43.256;26.960;2023-05-14T03:15:37;100266.70;;;9.78;100.00
11413;BME280;5762;43.256;26.960;2023-05-14T03:18:06;100271.86;;;9.72;100.00
11413;BME280;5762;43.256;26.960;2023-05-14T03:20:35;100274.00;;;9.78;100.00
11413;BME280;5762;43.256;26.960;2023-05-14T03:23:04;100278.83;;;9.83;100.00
11413;BME280;5762;43.256;26.960;2023-05-14T03:25:33;100268.78;;;9.91;100.00
11413;BME280;5762;43.256;26.960;2023-05-14T03:28:02;100268.48;;;9.95;100.00
11413;BME280;5762;43.256;26.960;2023-05-14T03:30:31;100270.62;;;10.01;100.00
11413;BME280;5762;43.256;26.960;2023-05-14T03:32:59;100281.09;;;10.07;100.00
11413;BME280;5762;43.256;26.960;2023-05-14T03:35:27;100274.27;;;10.18;100.00
11413;BME280;5762;43.256;26.960;2023-05-14T03:37:56;100268.81;;;10.28;100.00
11413;BME280;5762;43.256;26.960;2023-05-14T03:40:25;100276.06;;;10.35;100.00
11413;BME280;5762;43.256;26.960;2023-05-14T03:42:54;100274.91;;;10.41;100.00
11413;BME280;5762;43.256;26.960;2023-05-14T03:45:23;100273.20;;;10.50;100.00
11413;BME280;5762;43.256;26.960;2023-05-14T03:47:52;100284.78;;;10.58;100.00
11413;BME280;5762;43.256;26.960;2023-05-14T03:50:21;100290.11;;;10.68;100.00
11413;BME280;5762;43.256;26.960;2023-05-14T03:52:50;100289.82;;;10.70;100.00
11413;BME280;5762;43.256;26.960;2023-05-14T03:55:20;100293.58;;;10.74;100.00
11413;BME280;5762;43.256;26.960;2023-05-14T03:57:48;100297.84;;;10.78;100.00
11413;BME280;5762;43.256;26.960;2023-05-14T04:00:17;100302.36;;;10.87;100.00
11413;BME280;5762;43.256;26.960;2023-05-14T04:02:45;100302.58;;;10.93;100.00
11413;BME280;5762;43.256;26.960;2023-05-14T04:05:14;100299.84;;;10.96;100.00
11413;BME280;5762;43.256;26.960;2023-05-14T04:07:43;100304.16;;;10.97;100.00
11413;BME280;5762;43.256;26.960;2023-05-14T04:10:12;100304.16;;;10.97;100.00
11413;BME280;5762;43.256;26.960;2023-05-14T04:12:41;100304.45;;;10.95;100.00
11413;BME280;5762;43.256;26.960;2023-05-14T04:15:10;100299.86;;;10.93;100.00
11413;BME280;5762;43.256;26.960;2023-05-14T04:17:39;100299.58;;;10.95;100.00
11413;BME280;5762;43.256;26.960;2023-05-14T04:20:08;100303.33;;;10.99;100.00
11413;BME280;5762;43.256;26.960;2023-05-14T04:22:37;100311.33;;;11.09;100.00
11413;BME280;5762;43.256;26.960;2023-05-14T04:25:06;100314.51;;;11.16;100.00
11413;BME280;5762;43.256;26.960;2023-05-14T04:27:34;100319.35;;;11.19;100.00
11413;BME280;5762;43.256;26.960;2023-05-14T04:30:03;100319.82;;;11.26;100.00
11413;BME280;5762;43.256;26.960;2023-05-14T04:32:32;100324.44;;;11.26;100.00
11413;BME280;5762;43.256;26.960;2023-05-14T04:35:01;100315.18;;;11.29;100.00
11413;BME280;5762;43.256;26.960;2023-05-14T04:37:29;100316.71;;;11.38;100.00
11413;BME280;5762;43.256;26.960;2023-05-14T04:39:59;100316.28;;;11.50;100.00
11413;BME280;5762;43.256;26.960;2023-05-14T04:42:27;100309.52;;;11.71;100.00
11413;BME280;5762;43.256;26.960;2023-05-14T04:44:56;100319.23;;;11.77;100.00
11413;BME280;5762;43.256;26.960;2023-05-14T04:47:24;100316.42;;;11.82;100.00
11413;BME280;5762;43.256;26.960;2023-05-14T04:49:53;100317.55;;;12.00;100.00
11413;BME280;5762;43.256;26.960;2023-05-14T04:52:22;100320.23;;;12.19;100.00
11413;BME280;5762;43.256;26.960;2023-05-14T04:54:51;100320.17;;;12.24;100.00
11413;BME280;5762;43.256;26.960;2023-05-14T04:57:20;100319.43;;;12.37;100.00
11413;BME280;5762;43.256;26.960;2023-05-14T04:59:48;100316.45;;;12.52;100.00
11413;BME280;5762;43.256;26.960;2023-05-14T05:02:17;100316.84;;;12.62;100.00
11413;BME280;5762;43.256;26.960;2023-05-14T05:04:46;100317.45;;;12.89;100.00
11413;BME280;5762;43.256;26.960;2023-05-14T05:07:15;100314.45;;;13.04;100.00
11413;BME280;5762;43.256;26.960;2023-05-14T05:09:43;100308.75;;;13.19;100.00
11413;BME280;5762;43.256;26.960;2023-05-14T05:12:12;100308.52;;;13.46;100.00
11413;BME280;5762;43.256;26.960;2023-05-14T05:14:41;100302.94;;;13.64;100.00
11413;BME280;5762;43.256;26.960;2023-05-14T05:17:10;100304.53;;;13.79;100.00
11413;BME280;5762;43.256;26.960;2023-05-14T05:19:39;100311.37;;;14.01;100.00
11413;BME280;5762;43.256;26.960;2023-05-14T05:22:07;100305.09;;;14.15;100.00
11413;BME280;5762;43.256;26.960;2023-05-14T05:24:36;100310.41;;;14.31;100.00
11413;BME280;5762;43.256;26.960;2023-05-14T05:27:05;100317.69;;;14.47;100.00
11413;BME280;5762;43.256;26.960;2023-05-14T05:29:33;100325.55;;;14.48;100.00
11413;BME280;5762;43.256;26.960;2023-05-14T05:32:02;100330.48;;;14.57;100.00
11413;BME280;5762;43.256;26.960;2023-05-14T05:34:31;100341.81;;;14.62;100.00
11413;BME280;5762;43.256;26.960;2023-05-14T05:37:00;100335.50;;;14.64;100.00
11413;BME280;5762;43.256;26.960;2023-05-14T05:39:29;100337.11;;;14.76;100.00
11413;BME280;5762;43.256;26.960;2023-05-14T05:41:59;100332.79;;;14.95;100.00
11413;BME280;5762;43.256;26.960;2023-05-14T05:44:28;100332.52;;;15.16;100.00
11413;BME280;5762;43.256;26.960;2023-05-14T05:46:57;100339.27;;;15.27;100.00
11413;BME280;5762;43.256;26.960;2023-05-14T05:49:26;100335.58;;;15.43;100.00
11413;BME280;5762;43.256;26.960;2023-05-14T05:51:54;100326.94;;;15.50;100.00
11413;BME280;5762;43.256;26.960;2023-05-14T05:54:23;100326.66;;;15.60;100.00
11413;BME280;5762;43.256;26.960;2023-05-14T05:56:51;100330.45;;;15.70;100.00
11413;BME280;5762;43.256;26.960;2023-05-14T05:59:19;100335.23;;;15.84;100.00
11413;BME280;5762;43.256;26.960;2023-05-14T06:01:48;100332.91;;;15.97;100.00
11413;BME280;5762;43.256;26.960;2023-05-14T06:04:16;100334.94;;;16.12;100.00
11413;BME280;5762;43.256;26.960;2023-05-14T06:06:46;100339.36;;;16.19;100.00
11413;BME280;5762;43.256;26.960;2023-05-14T06:09:15;100345.05;;;16.37;100.00
11413;BME280;5762;43.256;26.960;2023-05-14T06:11:44;100349.16;;;16.46;100.00
11413;BME280;5762;43.256;26.960;2023-05-14T06:14:13;100369.05;;;16.63;100.00
11413;BME280;5762;43.256;26.960;2023-05-14T06:16:42;100367.05;;;16.92;100.00
11413;BME280;5762;43.256;26.960;2023-05-14T06:19:10;100377.86;;;17.03;100.00
11413;BME280;5762;43.256;26.960;2023-05-14T06:21:39;100382.08;;;17.24;100.00
11413;BME280;5762;43.256;26.960;2023-05-14T06:24:08;100386.53;;;17.14;100.00
11413;BME280;5762;43.256;26.960;2023-05-14T06:26:37;100384.02;;;17.24;100.00
11413;BME280;5762;43.256;26.960;2023-05-14T06:29:06;100387.97;;;17.20;100.00
11413;BME280;5762;43.256;26.960;2023-05-14T06:31:34;100385.87;;;17.40;100.00
11413;BME280;5762;43.256;26.960;2023-05-14T06:34:03;100392.06;;;17.43;100.00
11413;BME280;5762;43.256;26.960;2023-05-14T06:36:32;100394.73;;;17.61;100.00
11413;BME280;5762;43.256;26.960;2023-05-14T06:39:01;100394.27;;;17.59;100.00
11413;BME280;5762;43.256;26.960;2023-05-14T06:41:29;100391.78;;;17.74;100.00
11413;BME280;5762;43.256;26.960;2023-05-14T06:43:58;100394.91;;;17.79;100.00
11413;BME280;5762;43.256;26.960;2023-05-14T06:46:27;100401.97;;;18.09;100.00
11413;BME280;5762;43.256;26.960;2023-05-14T06:48:56;100406.25;;;18.34;100.00
11413;BME280;5762;43.256;26.960;2023-05-14T06:51:25;100413.44;;;18.32;100.00
11413;BME280;5762;43.256;26.960;2023-05-14T06:53:54;100420.84;;;18.53;100.00
11413;BME280;5762;43.256;26.960;2023-05-14T06:56:23;100426.86;;;18.88;100.00
11413;BME280;5762;43.256;26.960;2023-05-14T06:58:51;100421.34;;;18.82;100.00
11413;BME280;5762;43.256;26.960;2023-05-14T07:01:20;100422.48;;;18.81;100.00
11413;BME280;5762;43.256;26.960;2023-05-14T07:03:49;100428.03;;;18.93;100.00
11413;BME280;5762;43.256;26.960;2023-05-14T07:06:17;100420.33;;;19.19;100.00
11413;BME280;5762;43.256;26.960;2023-05-14T07:08:46;100424.34;;;19.22;100.00
11413;BME280;5762;43.256;26.960;2023-05-14T07:11:14;100414.48;;;19.15;100.00
11413;BME280;5762;43.256;26.960;2023-05-14T07:13:43;100411.30;;;19.19;100.00
11413;BME280;5762;43.256;26.960;2023-05-14T07:16:12;100413.39;;;19.46;100.00
11413;BME280;5762;43.256;26.960;2023-05-14T07:18:40;100411.58;;;19.38;100.00
11413;BME280;5762;43.256;26.960;2023-05-14T07:21:10;100415.69;;;19.50;100.00
11413;BME280;5762;43.256;26.960;2023-05-14T07:23:38;100411.05;;;19.57;100.00
11413;BME280;5762;43.256;26.960;2023-05-14T07:26:07;100413.34;;;19.67;100.00
11413;BME280;5762;43.256;26.960;2023-05-14T07:28:35;100414.70;;;19.55;100.00
11413;BME280;5762;43.256;26.960;2023-05-14T07:31:04;100418.28;;;19.73;100.00
11413;BME280;5762;43.256;26.960;2023-05-14T07:33:34;100416.67;;;19.66;100.00
11413;BME280;5762;43.256;26.960;2023-05-14T07:36:04;100411.41;;;19.73;100.00
11413;BME280;5762;43.256;26.960;2023-05-14T07:38:33;100409.23;;;19.73;100.00
11413;BME280;5762;43.256;26.960;2023-05-14T07:41:02;100410.02;;;19.61;100.00
11413;BME280;5762;43.256;26.960;2023-05-14T07:43:30;100409.45;;;19.62;100.00
11413;BME280;5762;43.256;26.960;2023-05-14T07:45:59;100405.44;;;19.59;100.00
11413;BME280;5762;43.256;26.960;2023-05-14T07:48:28;100399.37;;;19.60;100.00
11413;BME280;5762;43.256;26.960;2023-05-14T07:50:57;100400.74;;;19.54;100.00
11413;BME280;5762;43.256;26.960;2023-05-14T07:53:26;100398.81;;;19.60;100.00
11413;BME280;5762;43.256;26.960;2023-05-14T07:55:54;100392.52;;;19.60;100.00
11413;BME280;5762;43.256;26.960;2023-05-14T07:58:22;100389.53;;;19.53;100.00
11413;BME280;5762;43.256;26.960;2023-05-14T08:00:52;100389.50;;;19.34;100.00
11413;BME280;5762;43.256;26.960;2023-05-14T08:03:20;100387.88;;;19.27;100.00
11413;BME280;5762;43.256;26.960;2023-05-14T08:05:48;100391.31;;;19.30;100.00
11413;BME280;5762;43.256;26.960;2023-05-14T08:08:17;100392.41;;;19.05;100.00
11413;BME280;5762;43.256;26.960;2023-05-14T08:10:46;100392.41;;;19.05;100.00
11413;BME280;5762;43.256;26.960;2023-05-14T08:13:15;100387.50;;;19.04;100.00
11413;BME280;5762;43.256;26.960;2023-05-14T08:15:44;100386.70;;;19.04;100.00
11413;BME280;5762;43.256;26.960;2023-05-14T08:18:13;100390.71;;;19.19;100.00
11413;BME280;5762;43.256;26.960;2023-05-14T08:20:42;100384.19;;;19.05;100.00
11413;BME280;5762;43.256;26.960;2023-05-14T08:23:11;100389.16;;;18.91;100.00
11413;BME280;5762;43.256;26.960;2023-05-14T08:25:39;100395.03;;;19.01;100.00
11413;BME280;5762;43.256;26.960;2023-05-14T08:28:08;100397.39;;;18.91;100.00
11413;BME280;5762;43.256;26.960;2023-05-14T08:30:36;100392.18;;;19.04;100.00
11413;BME280;5762;43.256;26.960;2023-05-14T08:33:05;100398.80;;;19.09;100.00
11413;BME280;5762;43.256;26.960;2023-05-14T08:35:34;100399.66;;;19.28;100.00
11413;BME280;5762;43.256;26.960;2023-05-14T08:38:03;100397.49;;;19.46;100.00
11413;BME280;5762;43.256;26.960;2023-05-14T08:40:32;100396.97;;;19.52;100.00
11413;BME280;5762;43.256;26.960;2023-05-14T08:43:01;100393.90;;;19.72;100.00
11413;BME280;5762;43.256;26.960;2023-05-14T08:45:29;100395.25;;;19.84;100.00
11413;BME280;5762;43.256;26.960;2023-05-14T08:48:01;100384.62;;;19.64;100.00
11413;BME280;5762;43.256;26.960;2023-05-14T08:50:34;100383.36;;;19.56;100.00
11413;BME280;5762;43.256;26.960;2023-05-14T08:53:03;100389.30;;;19.58;100.00
11413;BME280;5762;43.256;26.960;2023-05-14T08:55:32;100389.20;;;19.60;100.00
11413;BME280;5762;43.256;26.960;2023-05-14T08:58:01;100380.38;;;19.55;100.00
11413;BME280;5762;43.256;26.960;2023-05-14T09:00:30;100369.14;;;19.35;100.00
11413;BME280;5762;43.256;26.960;2023-05-14T09:02:59;100367.77;;;19.35;100.00
11413;BME280;5762;43.256;26.960;2023-05-14T09:05:29;100364.31;;;19.26;100.00
11413;BME280;5762;43.256;26.960;2023-05-14T09:07:58;100366.92;;;19.17;100.00
11413;BME280;5762;43.256;26.960;2023-05-14T09:10:27;100374.28;;;19.31;100.00
11413;BME280;5762;43.256;26.960;2023-05-14T09:12:56;100386.05;;;19.31;100.00
11413;BME280;5762;43.256;26.960;2023-05-14T09:15:25;100383.77;;;19.46;100.00
11413;BME280;5762;43.256;26.960;2023-05-14T09:17:55;100387.02;;;19.54;100.00
11413;BME280;5762;43.256;26.960;2023-05-14T09:20:23;100381.88;;;19.58;100.00
11413;BME280;5762;43.256;26.960;2023-05-14T09:22:52;100385.52;;;19.99;100.00
11413;BME280;5762;43.256;26.960;2023-05-14T09:25:25;100374.12;;;20.25;100.00
11413;BME280;5762;43.256;26.960;2023-05-14T09:27:50;100373.99;;;20.33;100.00
11413;BME280;5762;43.256;26.960;2023-05-14T09:30:20;100371.48;;;20.40;100.00
11413;BME280;5762;43.256;26.960;2023-05-14T09:32:49;100369.20;;;20.18;100.00
11413;BME280;5762;43.256;26.960;2023-05-14T09:35:19;100367.04;;;20.12;100.00
11413;BME280;5762;43.256;26.960;2023-05-14T09:37:49;100374.64;;;19.90;100.00
11413;BME280;5762;43.256;26.960;2023-05-14T09:40:18;100369.03;;;19.93;100.00
11413;BME280;5762;43.256;26.960;2023-05-14T09:42:47;100371.70;;;19.71;100.00
11413;BME280;5762;43.256;26.960;2023-05-14T09:45:17;100369.06;;;19.68;100.00
11413;BME280;5762;43.256;26.960;2023-05-14T09:47:45;100377.30;;;19.56;100.00
11413;BME280;5762;43.256;26.960;2023-05-14T09:50:14;100367.18;;;19.48;100.00
11413;BME280;5762;43.256;26.960;2023-05-14T09:52:42;100377.64;;;19.61;100.00
11413;BME280;5762;43.256;26.960;2023-05-14T09:55:11;100369.41;;;19.73;100.00
11413;BME280;5762;43.256;26.960;2023-05-14T09:57:40;100357.36;;;19.84;100.00
11413;BME280;5762;43.256;26.960;2023-05-14T10:00:09;100355.41;;;19.84;100.00
11413;BME280;5762;43.256;26.960;2023-05-14T10:02:37;100357.02;;;19.79;100.00
11413;BME280;5762;43.256;26.960;2023-05-14T10:05:07;100353.72;;;19.55;100.00
11413;BME280;5762;43.256;26.960;2023-05-14T10:07:47;100343.52;;;19.80;100.00
11413;BME280;5762;43.256;26.960;2023-05-14T10:10:20;100344.46;;;19.72;100.00
11413;BME280;5762;43.256;26.960;2023-05-14T10:12:56;100341.94;;;19.67;100.00
11413;BME280;5762;43.256;26.960;2023-05-14T10:15:23;100344.23;;;19.59;100.00
11413;BME280;5762;43.256;26.960;2023-05-14T10:17:53;100342.17;;;19.68;100.00
11413;BME280;5762;43.256;26.960;2023-05-14T10:20:20;100342.70;;;19.98;100.00
11413;BME280;5762;43.256;26.960;2023-05-14T10:22:50;100347.05;;;19.99;100.00
11413;BME280;5762;43.256;26.960;2023-05-14T10:25:19;100346.47;;;20.05;100.00
11413;BME280;5762;43.256;26.960;2023-05-14T10:27:48;100342.05;;;20.23;100.00
11413;BME280;5762;43.256;26.960;2023-05-14T10:30:17;100346.30;;;20.20;100.00
11413;BME280;5762;43.256;26.960;2023-05-14T10:32:46;100343.42;;;20.29;100.00
11413;BME280;5762;43.256;26.960;2023-05-14T10:35:19;100343.62;;;20.36;100.00
11413;BME280;5762;43.256;26.960;2023-05-14T10:37:49;100341.39;;;20.54;100.00
11413;BME280;5762;43.256;26.960;2023-05-14T10:40:18;100343.32;;;20.81;100.00
11413;BME280;5762;43.256;26.960;2023-05-14T10:42:46;100348.67;;;20.90;100.00
11413;BME280;5762;43.256;26.960;2023-05-14T10:45:16;100339.34;;;20.79;100.00
11413;BME280;5762;43.256;26.960;2023-05-14T10:47:44;100341.98;;;20.47;100.00
11413;BME280;5762;43.256;26.960;2023-05-14T10:50:14;100342.56;;;20.47;100.00
11413;BME280;5762;43.256;26.960;2023-05-14T10:52:43;100340.95;;;20.52;100.00
11413;BME280;5762;43.256;26.960;2023-05-14T10:55:13;100330.94;;;20.37;100.00
11413;BME280;5762;43.256;26.960;2023-05-14T10:57:43;100328.98;;;20.32;100.00
11413;BME280;5762;43.256;26.960;2023-05-14T11:00:12;100328.17;;;20.44;100.00
11413;BME280;5762;43.256;26.960;2023-05-14T11:02:42;100334.16;;;20.21;100.00
11413;BME280;5762;43.256;26.960;2023-05-14T11:05:14;100322.91;;;20.32;100.00
11413;BME280;5762;43.256;26.960;2023-05-14T11:07:44;100320.84;;;20.42;100.00
11413;BME280;5762;43.256;26.960;2023-05-14T11:10:18;100320.39;;;20.39;100.00
11413;BME280;5762;43.256;26.960;2023-05-14T11:12:50;100308.50;;;20.57;100.00
11413;BME280;5762;43.256;26.960;2023-05-14T11:15:20;100299.97;;;20.68;100.00
11413;BME280;5762;43.256;26.960;2023-05-14T11:17:50;100296.06;;;20.69;100.00
11413;BME280;5762;43.256;26.960;2023-05-14T11:20:19;100303.92;;;20.55;100.00
11413;BME280;5762;43.256;26.960;2023-05-14T11:22:48;100297.97;;;20.53;100.00
11413;BME280;5762;43.256;26.960;2023-05-14T11:25:20;100284.89;;;20.56;100.00
11413;BME280;5762;43.256;26.960;2023-05-14T11:27:50;100270.25;;;20.52;100.00
11413;BME280;5762;43.256;26.960;2023-05-14T11:30:19;100258.42;;;20.30;100.00
11413;BME280;5762;43.256;26.960;2023-05-14T11:32:49;100256.82;;;20.29;100.00
11413;BME280;5762;43.256;26.960;2023-05-14T11:35:17;100243.80;;;20.48;100.00
11413;BME280;5762;43.256;26.960;2023-05-14T11:37:51;100237.24;;;20.52;100.00
11413;BME280;5762;43.256;26.960;2023-05-14T11:40:19;100233.59;;;20.48;100.00
11413;BME280;5762;43.256;26.960;2023-05-14T11:42:49;100229.53;;;20.36;100.00
11413;BME280;5762;43.256;26.960;2023-05-14T11:45:23;100228.39;;;20.59;100.00
11413;BME280;5762;43.256;26.960;2023-05-14T11:47:52;100226.61;;;20.82;100.00
11413;BME280;5762;43.256;26.960;2023-05-14T11:50:21;100231.55;;;20.98;100.00
11413;BME280;5762;43.256;26.960;2023-05-14T11:52:55;100233.28;;;20.97;100.00
11413;BME280;5762;43.256;26.960;2023-05-14T11:55:20;100235.72;;;21.08;100.00
11413;BME280;5762;43.256;26.960;2023-05-14T11:57:48;100229.50;;;21.62;100.00
11413;BME280;5762;43.256;26.960;2023-05-14T12:00:18;100223.46;;;22.11;100.00
11413;BME280;5762;43.256;26.960;2023-05-14T12:02:48;100213.34;;;21.99;100.00
11413;BME280;5762;43.256;26.960;2023-05-14T12:05:17;100198.88;;;21.38;100.00
11413;BME280;5762;43.256;26.960;2023-05-14T12:07:46;100195.13;;;21.46;100.00
11413;BME280;5762;43.256;26.960;2023-05-14T12:10:15;100192.18;;;21.74;100.00
11413;BME280;5762;43.256;26.960;2023-05-14T12:12:44;100193.61;;;21.87;100.00
11413;BME280;5762;43.256;26.960;2023-05-14T12:15:14;100196.92;;;21.38;100.00
11413;BME280;5762;43.256;26.960;2023-05-14T12:17:53;100204.44;;;21.16;100.00
11413;BME280;5762;43.256;26.960;2023-05-14T12:20:13;100215.78;;;21.21;100.00
11413;BME280;5762;43.256;26.960;2023-05-14T12:22:41;100224.36;;;21.10;100.00
11413;BME280;5762;43.256;26.960;2023-05-14T12:25:10;100230.14;;;21.14;100.00
11413;BME280;5762;43.256;26.960;2023-05-14T12:27:39;100218.23;;;21.00;100.00
11413;BME280;5762;43.256;26.960;2023-05-14T12:30:07;100211.66;;;21.21;100.00
11413;BME280;5762;43.256;26.960;2023-05-14T12:32:36;100205.47;;;21.33;98.88
11413;BME280;5762;43.256;26.960;2023-05-14T12:35:05;100210.33;;;21.50;74.67
11413;BME280;5762;43.256;26.960;2023-05-14T12:37:33;100195.64;;;21.90;81.96
11413;BME280;5762;43.256;26.960;2023-05-14T12:40:03;100200.42;;;22.32;82.55
11413;BME280;5762;43.256;26.960;2023-05-14T12:42:35;100202.49;;;22.16;87.75
11413;BME280;5762;43.256;26.960;2023-05-14T12:45:05;100200.13;;;22.37;85.44
11413;BME280;5762;43.256;26.960;2023-05-14T12:47:34;100191.68;;;22.49;81.43
11413;BME280;5762;43.256;26.960;2023-05-14T12:50:03;100194.39;;;22.59;76.65
11413;BME280;5762;43.256;26.960;2023-05-14T12:52:32;100180.86;;;22.50;77.20